Capitol Logistics 413


KTUL
Tulsa International Airport
Tulsa, Oklahoma, US
KMIA
Miami International Airport
Miami, Florida, US

Route Details

Aircraft Information
Primary: Boeing 757-200SF
Backup: Boeing 737-800BCF
Route Data
Distance: 1016nm
Sched. Duration: 2h 14m
Avg. Duration: 2h 77m (+62m)
Times Flown: 4
Recm'd Route: MAYJI FSM LIT SQS MEI ACORI BULZI NICKI Q81 ENDEW JUULI SSCOT5
Planned Altitude: 37,000ft
Origin Wx: KTUL 051453Z 12006KT 10SM FEW200 FEW250 29/19 A2994 RMK AO2 SLP129 T02940189 51024
Dest. Wx: KMIA 051453Z 11011G19KT 10SM BKN017 BKN250 30/26 A3004 RMK AO2 SLP172 T03000256 51004
Notes:

Financial History
Total Freight: 214,544lbs
Average Load: 53,636lbs/flt
Fuel Used: 76,902lbs
Avg. Fuel Used: 19,226lbs/flt
Fuel Expense: $36,144
Avg. Fuel Expense: $9,036
Avg. Fuel Cost: $0.47/lbs
Total Gross Income: $286,407
Pilot Pay: $846
Total Expenses: $31,140
Total Revenue: $216,265
Average Revenue: $71,601.64